White Rock Automatic Weather Reporting System

CWWK · British Columbia, Kanada

6. Oktober 2022

Uhrzeit Code Wetter Temp. Sichtweite Wolkendecke Wind METAR/SPECI
14:53
V
21 °C 10 mi - 270° 270° 5 kt METAR KBLI 062153Z 27005KT 10SM CLR 21/14 A3013 RMK AO2 SLP209 T02110144
13:53
V
20 °C 10 mi - Var Var 3 kt METAR KBLI 062053Z VRB03KT 10SM CLR 20/14 A3014 RMK AO2 SLP213 T02000144 58013
12:53
V
21 °C 9 mi - Var Var 3 kt METAR KBLI 061953Z VRB03KT 9SM CLR 21/14 A3016 RMK AO2 SLP218 T02110144
11:53
V
19 °C 8 mi - Var 000° 0 kt METAR KBLI 061853Z 00000KT 8SM CLR 19/14 A3017 RMK AO2 SLP222 T01890144
10:53
V
17 °C 6 mi - Var 000° 0 kt METAR KBLI 061753Z 00000KT 6SM HZ CLR 17/14 A3018 RMK AO2 SLP227 T01720139 10172 20067 58002
09:53
V
13 °C 6 mi - Var 000° 0 kt METAR KBLI 061653Z 00000KT 6SM BR CLR 13/13 A3019 RMK AO2 SLP230 T01330133
09:30
M
12 °C 4 mi - Var 000° 0 kt METAR KBLI 061630Z 00000KT 4SM R16/0400V5500FT BR FEW001 SCT006 12/12 A3019 RMK AO2 T01220122
09:25
L
12 °C 3 mi 400 ft Var 000° 0 kt METAR KBLI 061625Z 00000KT 3SM R16/0400V5500FT BR FEW001 BKN004 12/12 A3019 RMK AO2 T01170117
09:16
L
11 °C 1 mi 300 ft Var 000° 0 kt METAR KBLI 061616Z 00000KT 1SM R16/1600V4000FT BR VV003 11/11 A3019 RMK AO2 T01110111
09:07
L
11 °C ¼ mi 100 ft Var 000° 0 kt METAR KBLI 061607Z 00000KT 1/4SM R16/0300V2800FT FG VV001 11/11 A3019 RMK AO2 T01060106
08:53
L
11 °C ¼ mi 100 ft Var 000° 0 kt METAR KBLI 061553Z 00000KT M1/4SM R16/0200V0600FT FG VV001 11/11 A3019 RMK AO2 SLP231 T01060106
07:53
L
8 °C ¼ mi 100 ft Var 000° 0 kt METAR KBLI 061453Z 00000KT M1/4SM R16/0800V1400FT FG VV001 08/08 A3018 RMK AO2 SLP229 T00830083 53003
07:39
L
7 °C ¼ mi 100 ft Var 000° 0 kt METAR KBLI 061439Z 00000KT M1/4SM R16/1000V2200FT FG VV001 07/07 A3018 RMK AO2 T00720072
07:25
L
7 °C ¼ mi 100 ft Var 000° 0 kt METAR KBLI 061425Z 00000KT 1/4SM R16/1000V1400FT FG VV001 07/07 A3018 RMK AO2 T00720072
07:11
L
7 °C ½ mi 100 ft Var 000° 0 kt METAR KBLI 061411Z 00000KT 1/2SM R16/1400V3500FT FG VV001 07/07 A3018 RMK AO2 T00720072
06:53
L
7 °C ¼ mi 100 ft Var 000° 0 kt METAR KBLI 061353Z 00000KT 1/4SM R16/1400V4000FT FG VV001 07/07 A3017 RMK AO2 SLP225 T00720072
06:12
L
7 °C ¼ mi 100 ft Var 000° 0 kt METAR KBLI 061312Z AUTO 00000KT 1/4SM R16/1600VP6000FT FG VV001 07/07 A3017 RMK AO2 T00720072
05:53
L
7 °C ¼ mi 100 ft Var 000° 0 kt METAR KBLI 061253Z AUTO 00000KT 1/4SM R16/1200V1400FT FG VV001 07/07 A3017 RMK AO2 SLP223 T00720072
05:39
L
7 °C ¾ mi 100 ft Var 000° 0 kt METAR KBLI 061239Z AUTO 00000KT 3/4SM R16/1800V3000FT BR VV001 07/07 A3017 RMK AO2 T00720072
05:33
L
8 °C ½ mi 200 ft Var 000° 0 kt METAR KBLI 061233Z AUTO 00000KT 1/2SM R16/1600V2400FT FG VV002 08/08 A3017 RMK AO2 T00780078
05:28
L
8 °C ¼ mi 200 ft Var 000° 0 kt METAR KBLI 061228Z AUTO 00000KT 1/4SM R16/1600V2200FT FG VV002 08/08 A3017 RMK AO2 T00780078
05:20
L
8 °C ½ mi 200 ft Var 000° 0 kt METAR KBLI 061220Z AUTO 00000KT 1/2SM R16/1600V4500FT FG VV002 08/08 A3017 RMK AO2 T00780078
04:53
L
7 °C ¼ mi 100 ft Var 000° 0 kt METAR KBLI 061153Z AUTO 00000KT 1/4SM R16/1600V3000FT FG VV001 07/07 A3017 RMK AO2 SLP225 T00720072 10117 20072 58001
04:05
L
9 °C ¼ mi 100 ft Var 000° 0 kt METAR KBLI 061105Z AUTO 00000KT 1/4SM R16/0700V1000FT FG VV001 09/09 A3018 RMK AO2 T00890089
03:53
L
9 °C ¼ mi 100 ft Var 000° 0 kt METAR KBLI 061053Z AUTO 00000KT 1/4SM R16/1000VP6000FT FG VV001 09/09 A3018 RMK AO2 SLP225 T00890089
03:17
L
8 °C ¼ mi 100 ft Var 000° 0 kt METAR KBLI 061017Z AUTO 00000KT 1/4SM R16/1600V5000FT FG VV001 08/08 A3018 RMK AO2 T00830083
02:53
L
8 °C ¼ mi 100 ft Var 000° 0 kt METAR KBLI 060953Z AUTO 00000KT 1/4SM R16/0600V1200FT FG VV001 08/08 A3018 RMK AO2 SLP228 T00830083
02:44
L
9 °C 3 mi 100 ft Var 000° 0 kt METAR KBLI 060944Z AUTO 00000KT 3SM R16/0700VP6000FT BR OVC001 09/09 A3018 RMK AO2 T00940094
02:11
L
9 °C 3 mi 200 ft Var 000° 0 kt METAR KBLI 060911Z AUTO 00000KT 3SM BR BKN002 09/09 A3018 RMK AO2 T00940094
02:07
L
9 °C 1¼ mi 200 ft Var 000° 0 kt METAR KBLI 060907Z AUTO 00000KT 1 1/4SM BR OVC002 09/09 A3018 RMK AO2 T00940094
01:53
L
9 °C ¼ mi 200 ft Var 000° 0 kt METAR KBLI 060853Z AUTO 00000KT 1/4SM R16/0800V3500FT FG VV002 09/09 A3018 RMK AO2 SLP226 T00940094 53002
01:43
L
9 °C ¾ mi 200 ft Var 000° 0 kt METAR KBLI 060843Z AUTO 00000KT 3/4SM R16/0800V1800FT BR VV002 09/09 A3018 RMK AO2 VIS 1/4V5 T00940094
01:38
I
9 °C 1¼ mi - Var 000° 0 kt METAR KBLI 060838Z AUTO 00000KT 1 1/4SM R16/0800VP6000FT BR FEW002 09/09 A3018 RMK AO2 VIS 1/4V5 T00940094
01:30
L
10 °C ¾ mi - Var 000° 0 kt METAR KBLI 060830Z AUTO 00000KT 3/4SM R16/1200VP6000FT BR CLR 10/10 A3018 RMK AO2 T01000100
01:10
I
10 °C 3 mi - Var 000° 0 kt METAR KBLI 060810Z AUTO 00000KT 3SM R16/2000VP6000FT BR FEW002 10/10 A3018 RMK AO2 T01000100
01:03
I
10 °C 1¼ mi - Var 000° 0 kt METAR KBLI 060803Z AUTO 00000KT 1 1/4SM R16/2000VP6000FT BR SCT002 10/10 A3018 RMK AO2 VIS 1/2V5 T01000100
00:53
L
10 °C ¾ mi 200 ft Var 000° 0 kt METAR KBLI 060753Z AUTO 00000KT 3/4SM R16/0800VP6000FT BR VV002 10/10 A3017 RMK AO2 SLP225 T01000100 402110094
00:40
I
11 °C 2 mi - Var 000° 0 kt METAR KBLI 060740Z AUTO 00000KT 2SM R16/2400VP6000FT BR FEW003 11/11 A3018 RMK AO2 T01060106
00:29
L
11 °C 1 mi 300 ft Var 000° 0 kt METAR KBLI 060729Z AUTO 00000KT 1SM R16/P6000FT BR VV003 11/11 A3018 RMK AO2 T01060106
00:23
V
10 °C 7 mi - Var 000° 0 kt METAR KBLI 060723Z AUTO 00000KT 7SM R16/2600VP6000FT SCT003 10/10 A3018 RMK AO2 T01000100

5. Oktober 2022

Uhrzeit Code Wetter Temp. Sichtweite Wolkendecke Wind METAR/SPECI
23:53
V
11 °C 5 mi - Var 000° 0 kt METAR KBLI 060653Z AUTO 00000KT 5SM BR CLR 11/11 A3018 RMK AO2 SLP225 T01060106
22:53
V
11 °C 7 mi - Var 000° 0 kt METAR KBLI 060553Z AUTO 00000KT 7SM CLR 11/11 A3017 RMK AO2 SLP225 T01060106 10200 20106 52004
21:53
V
12 °C 8 mi - Var 000° 0 kt METAR KBLI 060453Z 00000KT 8SM CLR 12/12 A3017 RMK AO2 SLP224 T01170117
20:53
V
12 °C 9 mi - Var 000° 0 kt METAR KBLI 060353Z 00000KT 9SM CLR 12/12 A3016 RMK AO2 SLP222 T01220117
19:53
V
14 °C 10 mi - Var 000° 0 kt METAR KBLI 060253Z 00000KT 10SM CLR 14/13 A3016 RMK AO2 SLP221 T01390128 53003
18:53
V
16 °C 10 mi - 270° 270° 3 kt METAR KBLI 060153Z 27003KT 10SM CLR 16/13 A3015 RMK AO2 SLP217 T01560133
17:53
V
18 °C 10 mi - 290° 290° 4 kt METAR KBLI 060053Z 29004KT 10SM CLR 18/14 A3015 RMK AO2 SLP216 T01780139
16:53
V
20 °C 10 mi - 290° 290° 5 kt METAR KBLI 052353Z 29005KT 10SM CLR 20/14 A3015 RMK AO2 SLP217 T02000139 10211 20161 56011
15:53
V
20 °C 10 mi - Var Var 3 kt METAR KBLI 052253Z VRB03KT 10SM CLR 20/14 A3016 RMK AO2 SLP219 T02000139
14:53
V
19 °C 10 mi - 280° 280° 5 kt METAR KBLI 052153Z 28005KT 10SM CLR 19/14 A3018 RMK AO2 SLP225 T01890139
13:53
V
19 °C 10 mi - Var Var 3 kt METAR KBLI 052053Z VRB03KT 10SM SCT016 19/14 A3019 RMK AO2 SLP228 T01890139 58007
12:53
V
18 °C 10 mi - Var Var 5 kt METAR KBLI 051953Z VRB05KT 10SM SCT017 18/14 A3020 RMK AO2 SLP232 T01780139
11:53
V
17 °C 10 mi - Var Var 4 kt METAR KBLI 051853Z VRB04KT 10SM SCT017 17/14 A3020 RMK AO2 SLP234 T01720139
10:53
V
16 °C 10 mi - Var 000° 0 kt METAR KBLI 051753Z 10SM CLR 16/13 A3021 RMK AO2 SLP236 T01610133 10167 20111 51010
10:16
V
16 °C 10 mi - Var 000° 0 kt METAR KBLI 051716Z 00000KT 10SM SCT017 16/13 A3021 RMK AO2 T01610133
09:53
M
15 °C 10 mi 1.700 ft Var 000° 0 kt METAR KBLI 051653Z 00000KT 10SM OVC017 15/13 A3021 RMK AO2 SLP235 T01500128
08:53
M
12 °C 8 mi 1.700 ft Var 000° 0 kt METAR KBLI 051553Z 00000KT 8SM OVC017 12/12 A3020 RMK AO2 SLP233 T01220117
07:53
M
13 °C 7 mi 1.700 ft Var 000° 0 kt METAR KBLI 051453Z 00000KT 7SM OVC017 13/13 A3018 RMK AO2 SLP225 T01280128 52007
06:53
M
12 °C 7 mi 1.800 ft Var 000° 0 kt METAR KBLI 051353Z 00000KT 7SM OVC018 12/12 A3017 RMK AO2 SLP224 T01220122
05:53
M
13 °C 9 mi 2.000 ft 170° 170° 5 kt METAR KBLI 051253Z AUTO 17005KT 9SM OVC020 13/13 A3016 RMK AO2 SLP221 T01280128
04:53
M
11 °C 10 mi 2.400 ft Var 000° 0 kt METAR KBLI 051153Z AUTO 00000KT 10SM BKN024 11/11 A3016 RMK AO2 SLP219 T01110111 10150 20100 53008
03:53
V
12 °C 10 mi 10.000 ft Var 000° 0 kt METAR KBLI 051053Z AUTO 00000KT 10SM BKN100 12/12 A3015 RMK AO2 SLP215 T01220117
02:53
V
13 °C 10 mi 10.000 ft Var 000° 0 kt METAR KBLI 050953Z AUTO 00000KT 10SM BKN100 13/12 A3013 RMK AO2 SLP210 T01330122
01:53
V
10 °C 8 mi - Var 000° 0 kt METAR KBLI 050853Z AUTO 00000KT 8SM CLR 10/10 A3013 RMK AO2 SLP211 T01000100 53014
00:53
V
12 °C 10 mi - Var 000° 0 kt METAR KBLI 050753Z AUTO 00000KT 10SM CLR 12/12 A3011 RMK AO2 SLP203 T01170117 401610106

4. Oktober 2022

Uhrzeit Code Wetter Temp. Sichtweite Wolkendecke Wind METAR/SPECI
23:53
V
13 °C 10 mi - Var 000° 0 kt METAR KBLI 050653Z AUTO 00000KT 10SM CLR 13/12 A3010 RMK AO2 SLP199 T01330122
22:53
V
15 °C 10 mi - 160° 160° 6 kt METAR KBLI 050553Z AUTO 16006KT 10SM CLR 15/13 A3009 RMK AO2 SLP197 T01500128 10161 20150 53014
21:53
V
16 °C 10 mi - 170° 170° 6 kt METAR KBLI 050453Z 17006KT 10SM CLR 16/13 A3007 RMK AO2 SLP191 T01560128
20:53
V
16 °C 10 mi - 180° 180° 5 kt METAR KBLI 050353Z 18005KT 10SM CLR 16/13 A3006 RMK AO2 SLP185 T01560133
19:53
V
16 °C 10 mi - 190° 190° 5 kt METAR KBLI 050253Z 19005KT 10SM CLR 16/13 A3005 RMK AO2 SLP183 T01560133 53007
18:53
V
16 °C 10 mi - 180° 180° 6 kt METAR KBLI 050153Z 18006KT 10SM CLR 16/13 A3003 RMK AO2 SLP176 T01560133
17:53
V
15 °C 10 mi - 190° 190° 8 kt METAR KBLI 050053Z 19008KT 10SM CLR 15/13 A3002 RMK AO2 SLP173 T01500133
16:53
V
15 °C 9 mi - 190° 190° 10 - 18 kt METAR KBLI 042353Z 19010G18KT 9SM CLR 15/13 A3003 RMK AO2 SLP176 T01500128 10156 20122 56003
15:53
V
15 °C 9 mi - 190° 190° 8 kt METAR KBLI 042253Z 19008KT 9SM CLR 15/13 A3003 RMK AO2 SLP176 T01500133
14:53
V
15 °C 9 mi - 180° 180° 8 kt METAR KBLI 042153Z 18008KT 150V220 9SM CLR 15/13 A3003 RMK AO2 SLP177 T01500133
13:53
V
15 °C 7 mi 6.000 ft 180° 180° 9 - 16 kt METAR KBLI 042053Z 18009G16KT 7SM FEW005 SCT015 BKN060 15/13 A3004 RMK AO2 SLP179 T01500133 58008
12:53
V
15 °C 8 mi 6.000 ft 180° 180° 9 kt METAR KBLI 041953Z 18009KT 8SM SCT005 BKN060 15/13 A3005 RMK AO2 SLP183 T01500133
12:30
V
14 °C 5 mi 6.000 ft 180° 180° 9 kt METAR KBLI 041930Z 18009KT 5SM BR SCT005 BKN060 14/13 A3006 RMK AO2 T01440133
12:15
L
14 °C 5 mi 400 ft 210° 210° 7 - 14 kt METAR KBLI 041915Z 21007G14KT 180V250 5SM BR BKN004 14/13 A3007 RMK AO2 T01390133
11:53
L
14 °C 2 mi 300 ft 170° 170° 8 kt METAR KBLI 041853Z 17008KT 2SM BR OVC003 14/13 A3006 RMK AO2 SLP187 T01390133
11:23
L
13 °C ¾ mi 200 ft 180° 180° 8 kt METAR KBLI 041823Z 18008KT 3/4SM R16/P6000FT BR OVC002 13/13 A3007 RMK AO2 T01280128
11:04
L
13 °C ¼ mi 200 ft 180° 180° 7 - 16 kt METAR KBLI 041804Z 18007G16KT 1/4SM R16/3500VP6000FT FG OVC002 13/13 A3007 RMK AO2 T01280128
10:57
L
12 °C 1 mi 200 ft 170° 170° 8 - 16 kt METAR KBLI 041757Z 17008G16KT 1SM R16/3000VP6000FT BR OVC002 12/12 A3007 RMK AO2 T01220122
09:53
L
12 °C ¼ mi 100 ft 180° 180° 9 kt METAR KBLI 041653Z 18009KT 1/4SM R16/2000V3000FT FG OVC001 12/12 A3006 RMK AO2 SLP187 T01170117
09:24
L
12 °C ¼ mi 200 ft 180° 180° 10 - 18 kt METAR KBLI 041624Z 18010G18KT 1/4SM R16/1600V3500FT FG VV002 12/12 A3007 RMK AO2 T01170117
08:53
L
12 °C ¼ mi 200 ft 180° 180° 11 - 17 kt METAR KBLI 041553Z 18011G17KT 1/4SM R16/1200V1800FT FG VV002 12/12 A3006 RMK AO2 SLP186 T01170117
08:05
L
11 °C ¼ mi 100 ft 170° 170° 9 kt METAR KBLI 041505Z 17009KT 1/4SM R16/1200V2200FT FG VV001 11/11 A3006 RMK AO2 T01110111
07:53
L
11 °C ¼ mi 100 ft 190° 190° 7 kt METAR KBLI 041453Z 19007KT 1/4SM R16/4500VP6000FT FG OVC001 11/11 A3005 RMK AO2 SLP184 T01110111 53008
Ältere Daten

Wir und Dritte verfolgen dein Internetverhalten auf unserer Website mit Cookies. Wenn du fortfährst, gehen wir davon aus, dass du mit unserer Cookie-Richtlinie einverstanden bist. Mehr erfahren